Search for airport 
image banner adimage banner adimage banner ad
image banner ad

9CA6 - North Valley

Located in Bishop, United States

ICAO - 9CA6, IATA -

Data provided by Airmate  

General information

Coordinates: N37°52'9" W118°5'42"
Elevation is 4960 feet MSL.
Magnetic variation is 15° East
View others Airports in California

Operational data

Special qualification required
Current time UTC:
Current local time:
Weather at : KBIH - Bishop ( 60 km )
METAR: KBIH 270356Z AUTO 15009KT 10SM BKN110 20/17 A3007 RMK AO2 PK WND 18026/0303 RAB0259E49 SLP133 P0001 T02000167
TAF: KBIH 262327Z 2700/2724 16010G18KT P6SM VCTS SCT060 BKN100CB TEMPO 2700/2704 16020G35KT 2SM TSRA BKN050CB FM270600 17008KT P6SM BKN050 FM271100 VRB06KT P6SM BKN070 FM271500 17012G20KT P6SM BKN100
View NOTAMs / SUP AIP / TFR affecting this airport [VIEW]
Communications frequencies: [VIEW]

Runways:

RWY identifierQFULength (ft)Width (ft)SurfaceLDA (ft)
165300100EARTH
345300100EARTH

Airport contact information

Address: Bishop United States

Satellite view of 9CA6